createdAt,value
2018-07-09T00:00:30.643Z,16.93
2018-07-09T00:01:31.533Z,16.86
2018-07-09T00:02:30.543Z,16.86
2018-07-09T00:03:30.525Z,16.74
2018-07-09T00:04:30.453Z,16.69
2018-07-09T00:05:30.403Z,16.65
2018-07-09T00:06:30.364Z,16.66
2018-07-09T00:07:30.307Z,16.56
2018-07-09T00:08:30.298Z,16.49
2018-07-09T00:09:30.218Z,16.50
2018-07-09T00:10:30.175Z,16.41
2018-07-09T00:11:30.123Z,16.43
2018-07-09T00:12:30.079Z,16.38
2018-07-09T00:13:30.049Z,16.49
2018-07-09T00:14:29.981Z,16.47
2018-07-09T00:15:29.939Z,16.49
2018-07-09T00:16:29.889Z,16.43
2018-07-09T00:17:29.837Z,16.44
2018-07-09T00:18:29.823Z,16.50
2018-07-09T00:19:29.742Z,16.46
2018-07-09T00:20:29.695Z,16.41
2018-07-09T00:21:29.651Z,16.43
2018-07-09T00:22:29.600Z,16.49
2018-07-09T00:23:29.579Z,16.47
2018-07-09T00:24:29.506Z,16.43
2018-07-09T00:25:29.459Z,16.41
2018-07-09T00:26:29.417Z,16.41
2018-07-09T00:27:29.368Z,16.44
2018-07-09T00:28:29.361Z,16.43
2018-07-09T00:29:29.275Z,16.35
2018-07-09T00:30:29.223Z,16.38
2018-07-09T00:31:29.175Z,16.35
2018-07-09T00:32:29.145Z,16.38
2018-07-09T00:33:29.088Z,16.35
2018-07-09T00:34:29.053Z,16.34
2018-07-09T00:35:28.990Z,16.46
2018-07-09T00:36:28.943Z,16.49
2018-07-09T00:37:28.889Z,16.43
2018-07-09T00:38:28.851Z,16.34
2018-07-09T00:39:28.826Z,16.31
2018-07-09T00:40:28.752Z,16.32
2018-07-09T00:41:28.704Z,16.28
2018-07-09T00:42:28.656Z,16.09
2018-07-09T00:43:28.612Z,16.06
2018-07-09T00:44:28.586Z,16.05
2018-07-09T00:45:28.512Z,16.06
2018-07-09T00:46:28.468Z,16.01
2018-07-09T00:47:28.417Z,15.91
2018-07-09T00:48:28.372Z,15.94
2018-07-09T00:49:28.358Z,15.94
2018-07-09T00:50:28.277Z,15.88
2018-07-09T00:51:28.228Z,15.87
2018-07-09T00:52:28.181Z,15.90
2018-07-09T00:53:28.139Z,15.88
2018-07-09T00:54:28.109Z,15.92
2018-07-09T00:55:28.055Z,15.85
2018-07-09T00:56:27.994Z,15.87
2018-07-09T00:57:27.953Z,15.82
2018-07-09T00:58:27.897Z,15.85
2018-07-09T00:59:27.877Z,15.77
2018-07-09T01:00:27.801Z,15.75
2018-07-09T01:01:27.763Z,15.70
2018-07-09T01:02:27.707Z,15.68
2018-07-09T01:03:27.659Z,15.70
2018-07-09T01:04:27.634Z,15.69
2018-07-09T01:05:27.569Z,15.69
2018-07-09T01:06:27.521Z,15.73
2018-07-09T01:07:27.474Z,15.72
2018-07-09T01:08:27.423Z,15.65
2018-07-09T01:09:27.402Z,15.68
2018-07-09T01:10:27.333Z,15.68
2018-07-09T01:11:27.282Z,15.69
2018-07-09T01:12:27.234Z,15.65
2018-07-09T01:13:27.186Z,15.70
2018-07-09T01:14:27.168Z,15.73
2018-07-09T01:15:27.096Z,15.70
2018-07-09T01:16:27.041Z,15.69
2018-07-09T01:17:26.999Z,15.80
2018-07-09T01:18:26.948Z,15.75
2018-07-09T01:19:26.926Z,15.88
2018-07-09T01:20:26.863Z,15.88
2018-07-09T01:21:26.806Z,15.83
2018-07-09T01:22:26.760Z,15.88
2018-07-09T01:23:26.712Z,15.91
2018-07-09T01:24:26.687Z,15.97
2018-07-09T01:25:26.618Z,15.83
2018-07-09T01:26:26.570Z,15.82
2018-07-09T01:27:26.521Z,15.85
2018-07-09T01:28:26.472Z,15.70
2018-07-09T01:29:26.468Z,15.61
2018-07-09T01:30:26.377Z,15.54
2018-07-09T01:31:26.330Z,15.60
2018-07-09T01:32:26.282Z,15.48
2018-07-09T01:33:26.237Z,15.39
2018-07-09T01:34:26.213Z,15.30
2018-07-09T01:35:26.142Z,15.32
2018-07-09T01:36:26.092Z,15.32
2018-07-09T01:37:26.048Z,15.15
2018-07-09T01:38:25.999Z,15.21
2018-07-09T01:39:25.998Z,15.24
2018-07-09T01:40:25.902Z,15.19
2018-07-09T01:41:25.858Z,15.18
2018-07-09T01:42:25.805Z,15.18
2018-07-09T01:43:25.765Z,15.18
2018-07-09T01:44:25.735Z,15.19
2018-07-09T01:45:25.670Z,15.19
2018-07-09T01:46:25.618Z,15.19
2018-07-09T01:47:25.573Z,15.15
2018-07-09T01:48:25.523Z,15.09
2018-07-09T01:49:25.524Z,15.02
2018-07-09T01:50:25.425Z,15.14
2018-07-09T01:51:25.377Z,15.12
2018-07-09T01:52:25.328Z,15.04
2018-07-09T01:53:25.280Z,15.03
2018-07-09T01:54:25.240Z,14.96
2018-07-09T01:55:25.213Z,14.91
2018-07-09T01:56:25.140Z,14.93
2018-07-09T01:57:25.092Z,14.84
2018-07-09T01:58:25.045Z,14.84
2018-07-09T01:59:25.001Z,14.82
2018-07-09T02:00:24.981Z,14.84
2018-07-09T02:01:24.904Z,14.69
2018-07-09T02:02:24.856Z,14.66
2018-07-09T02:03:24.808Z,14.66
2018-07-09T02:04:24.757Z,14.65
2018-07-09T02:05:24.732Z,14.66
2018-07-09T02:06:24.658Z,14.65
2018-07-09T02:07:24.615Z,14.66
2018-07-09T02:08:24.570Z,14.65
2018-07-09T02:09:24.518Z,14.58
2018-07-09T02:10:24.490Z,14.61
2018-07-09T02:11:24.428Z,14.44
2018-07-09T02:12:24.381Z,14.50
2018-07-09T02:13:24.324Z,14.43
2018-07-09T02:14:24.276Z,14.51
2018-07-09T02:15:24.258Z,14.40
2018-07-09T02:16:24.187Z,14.41
2018-07-09T02:17:24.138Z,14.37
2018-07-09T02:18:24.090Z,14.32
2018-07-09T02:19:24.041Z,14.28
2018-07-09T02:20:24.041Z,14.26
2018-07-09T02:21:23.939Z,14.20
2018-07-09T02:22:23.895Z,14.23
2018-07-09T02:23:23.854Z,14.20
2018-07-09T02:24:23.798Z,14.19
2018-07-09T02:25:23.784Z,14.19
2018-07-09T02:26:23.698Z,14.18
2018-07-09T02:27:23.656Z,14.14
2018-07-09T02:28:23.609Z,14.14
2018-07-09T02:29:23.560Z,14.08
2018-07-09T02:30:23.533Z,14.10
2018-07-09T02:31:23.462Z,14.05
2018-07-09T02:32:23.412Z,14.11
2018-07-09T02:33:23.367Z,14.11
2018-07-09T02:34:23.318Z,14.04
2018-07-09T02:35:23.306Z,14.00
2018-07-09T02:36:23.225Z,13.95
2018-07-09T02:37:23.173Z,13.97
2018-07-09T02:38:23.130Z,14.01
2018-07-09T02:39:23.084Z,13.97
2018-07-09T02:40:23.055Z,14.07
2018-07-09T02:41:22.981Z,13.93
2018-07-09T02:42:22.928Z,14.04
2018-07-09T02:43:22.888Z,14.04
2018-07-09T02:44:22.838Z,14.10
2018-07-09T02:45:22.820Z,14.07
2018-07-09T02:46:22.740Z,14.07
2018-07-09T02:47:22.691Z,14.03
2018-07-09T02:48:22.639Z,13.97
2018-07-09T02:49:22.593Z,13.97
2018-07-09T02:50:22.572Z,13.93
2018-07-09T02:51:22.500Z,14.01
2018-07-09T02:52:22.448Z,13.97
2018-07-09T02:53:22.414Z,13.97
2018-07-09T02:54:22.353Z,13.97
2018-07-09T02:55:22.325Z,13.96
2018-07-09T02:56:22.256Z,14.01
2018-07-09T02:57:22.272Z,14.01
2018-07-09T02:58:22.159Z,14.00
2018-07-09T02:59:22.112Z,14.03
2018-07-09T03:00:22.086Z,14.00
2018-07-09T03:01:22.016Z,14.03
2018-07-09T03:02:21.981Z,13.95
2018-07-09T03:03:21.920Z,13.97
2018-07-09T03:04:21.869Z,13.92
2018-07-09T03:05:21.847Z,13.88
2018-07-09T03:06:21.771Z,13.77
2018-07-09T03:07:21.723Z,13.68
2018-07-09T03:08:21.681Z,13.74
2018-07-09T03:09:21.630Z,13.71
2018-07-09T03:10:21.611Z,13.64
2018-07-09T03:11:21.531Z,13.57
2018-07-09T03:12:21.480Z,13.56
2018-07-09T03:13:21.438Z,13.65
2018-07-09T03:14:21.388Z,13.52
2018-07-09T03:15:21.372Z,13.53
2018-07-09T03:16:21.291Z,13.50
2018-07-09T03:17:21.246Z,13.46
2018-07-09T03:18:21.193Z,13.43
2018-07-09T03:19:21.145Z,13.49
2018-07-09T03:20:21.120Z,13.50
2018-07-09T03:21:21.126Z,13.35
2018-07-09T03:22:21.001Z,13.27
2018-07-09T03:23:20.954Z,13.31
2018-07-09T03:24:20.903Z,13.27
2018-07-09T03:25:20.855Z,13.33
2018-07-09T03:26:20.831Z,13.35
2018-07-09T03:27:20.764Z,13.38
2018-07-09T03:28:20.716Z,13.35
2018-07-09T03:29:20.664Z,13.38
2018-07-09T03:30:20.614Z,13.33
2018-07-09T03:31:20.590Z,13.43
2018-07-09T03:32:20.519Z,13.41
2018-07-09T03:33:20.469Z,13.33
2018-07-09T03:34:20.420Z,13.38
2018-07-09T03:35:20.370Z,13.27
2018-07-09T03:36:20.348Z,13.31
2018-07-09T03:37:20.273Z,13.24
2018-07-09T03:38:20.222Z,13.24
2018-07-09T03:39:20.179Z,13.26
2018-07-09T03:40:20.136Z,13.30
2018-07-09T03:41:20.108Z,13.30
2018-07-09T03:42:20.030Z,13.31
2018-07-09T03:43:19.983Z,13.33
2018-07-09T03:44:19.934Z,13.27
2018-07-09T03:45:19.885Z,13.33
2018-07-09T03:46:19.859Z,13.31
2018-07-09T03:47:19.788Z,13.37
2018-07-09T03:48:19.745Z,13.45
2018-07-09T03:49:19.700Z,13.45
2018-07-09T03:50:19.645Z,13.46
2018-07-09T03:51:19.614Z,13.52
2018-07-09T03:52:19.546Z,13.50
2018-07-09T03:53:19.497Z,13.43
2018-07-09T03:54:19.457Z,13.46
2018-07-09T03:55:19.402Z,13.53
2018-07-09T03:56:19.377Z,13.53
2018-07-09T03:57:19.309Z,13.52
2018-07-09T03:58:19.253Z,13.53
2018-07-09T03:59:19.203Z,13.47
2018-07-09T04:00:19.161Z,13.52
2018-07-09T04:01:19.132Z,13.55
2018-07-09T04:02:19.125Z,13.53
2018-07-09T04:03:19.008Z,13.55
2018-07-09T04:04:18.959Z,13.52
2018-07-09T04:05:18.912Z,13.59
2018-07-09T04:06:18.893Z,13.56
2018-07-09T04:07:18.815Z,13.56
2018-07-09T04:08:18.770Z,13.59
2018-07-09T04:09:18.722Z,13.64
2018-07-09T04:10:18.673Z,13.64
2018-07-09T04:11:18.653Z,13.67
2018-07-09T04:12:18.569Z,13.67
2018-07-09T04:13:18.527Z,13.63
2018-07-09T04:14:18.481Z,13.70
2018-07-09T04:15:18.442Z,13.72
2018-07-09T04:16:18.411Z,13.74
2018-07-09T04:17:18.331Z,13.70
2018-07-09T04:18:18.280Z,13.75
2018-07-09T04:19:18.237Z,13.80
2018-07-09T04:20:18.186Z,13.83
2018-07-09T04:21:18.164Z,13.88
2018-07-09T04:22:18.095Z,13.89
2018-07-09T04:23:18.043Z,14.01
2018-07-09T04:24:18.003Z,13.96
2018-07-09T04:25:17.940Z,14.05
2018-07-09T04:26:17.966Z,14.07
2018-07-09T04:27:17.850Z,14.19
2018-07-09T04:28:17.796Z,14.25
2018-07-09T04:29:17.752Z,14.28
2018-07-09T04:30:17.700Z,14.30
2018-07-09T04:31:17.682Z,14.43
2018-07-09T04:32:17.607Z,14.44
2018-07-09T04:33:17.562Z,14.43
2018-07-09T04:34:17.509Z,14.51
2018-07-09T04:35:17.462Z,14.58
2018-07-09T04:36:17.440Z,14.65
2018-07-09T04:37:17.365Z,14.68
2018-07-09T04:38:17.315Z,14.84
2018-07-09T04:39:17.279Z,14.84
2018-07-09T04:40:17.224Z,14.88
2018-07-09T04:41:17.206Z,14.89
2018-07-09T04:42:17.137Z,15.02
2018-07-09T04:43:17.085Z,15.09
2018-07-09T04:44:17.034Z,15.17
2018-07-09T04:45:16.980Z,15.24
2018-07-09T04:46:16.983Z,15.33
2018-07-09T04:47:16.881Z,15.35
2018-07-09T04:48:16.838Z,15.39
2018-07-09T04:49:16.798Z,15.35
2018-07-09T04:50:16.754Z,15.44
2018-07-09T04:51:16.698Z,15.48
2018-07-09T04:52:16.670Z,15.50
2018-07-09T04:53:16.603Z,15.55
2018-07-09T04:54:16.558Z,15.52
2018-07-09T04:55:16.506Z,15.61
2018-07-09T04:56:16.458Z,15.65
2018-07-09T04:57:16.434Z,15.73
2018-07-09T04:58:16.363Z,15.79
2018-07-09T04:59:16.320Z,15.85
2018-07-09T05:00:16.268Z,15.83
2018-07-09T05:01:16.221Z,15.94
2018-07-09T05:02:16.191Z,16.00
2018-07-09T05:03:16.121Z,16.01
2018-07-09T05:04:16.078Z,16.05
2018-07-09T05:05:16.034Z,16.09
2018-07-09T05:06:15.981Z,16.06
2018-07-09T05:07:15.957Z,16.15
2018-07-09T05:08:15.900Z,16.28
2018-07-09T05:09:15.845Z,16.29
2018-07-09T05:10:15.802Z,16.34
2018-07-09T05:11:15.751Z,16.35
2018-07-09T05:12:15.729Z,16.46
2018-07-09T05:13:15.657Z,16.41
2018-07-09T05:14:15.605Z,16.47
2018-07-09T05:15:15.560Z,16.47
2018-07-09T05:16:15.517Z,16.59
2018-07-09T05:17:15.492Z,16.59
2018-07-09T05:18:15.418Z,16.69
2018-07-09T05:19:15.371Z,16.82
2018-07-09T05:20:15.333Z,16.91
2018-07-09T05:21:15.280Z,16.90
2018-07-09T05:22:15.260Z,17.09
2018-07-09T05:23:15.179Z,17.17
2018-07-09T05:24:15.135Z,17.30
2018-07-09T05:25:15.092Z,17.33
2018-07-09T05:26:15.049Z,17.38
2018-07-09T05:27:15.025Z,17.37
2018-07-09T05:28:14.948Z,17.48
2018-07-09T05:29:14.902Z,17.53
2018-07-09T05:30:14.852Z,17.53
2018-07-09T05:31:14.814Z,17.68
2018-07-09T05:32:14.796Z,17.59
2018-07-09T05:33:14.726Z,17.67
2018-07-09T05:34:14.671Z,17.67
2018-07-09T05:35:14.619Z,17.67
2018-07-09T05:36:14.581Z,17.70
2018-07-09T05:37:14.561Z,17.68
2018-07-09T05:38:14.483Z,17.63
2018-07-09T05:39:14.442Z,17.65
2018-07-09T05:40:14.399Z,17.67
2018-07-09T05:41:14.345Z,17.82
2018-07-09T05:42:14.319Z,17.83
2018-07-09T05:43:14.256Z,17.89
2018-07-09T05:44:14.204Z,17.88
2018-07-09T05:45:14.161Z,17.82
2018-07-09T05:46:14.117Z,17.79
2018-07-09T05:47:14.090Z,17.80
2018-07-09T05:48:14.016Z,17.78
2018-07-09T05:49:13.974Z,17.68
2018-07-09T05:50:13.928Z,17.59
2018-07-09T05:51:13.878Z,17.60
2018-07-09T05:52:13.860Z,17.68
2018-07-09T05:53:13.789Z,17.59
2018-07-09T05:54:13.738Z,17.67
2018-07-09T05:55:13.693Z,17.71
2018-07-09T05:56:13.655Z,17.76
2018-07-09T05:57:13.628Z,17.98
2018-07-09T05:58:13.555Z,17.97
2018-07-09T05:59:13.515Z,18.07
2018-07-09T06:00:13.471Z,18.04
2018-07-09T06:01:13.419Z,18.12
2018-07-09T06:02:13.398Z,18.04
2018-07-09T06:03:13.325Z,18.13
2018-07-09T06:04:13.278Z,18.13
2018-07-09T06:05:13.304Z,18.15
2018-07-09T06:06:13.198Z,18.22
2018-07-09T06:07:13.162Z,18.26
2018-07-09T06:08:13.097Z,18.40
2018-07-09T06:09:13.048Z,18.35
2018-07-09T06:10:13.003Z,18.30
2018-07-09T06:11:12.982Z,18.30
2018-07-09T06:12:12.933Z,18.20
2018-07-09T06:13:12.874Z,18.09
2018-07-09T06:14:12.817Z,18.05
2018-07-09T06:15:12.808Z,18.00
2018-07-09T06:16:12.730Z,18.01
2018-07-09T06:17:12.708Z,18.04
2018-07-09T06:18:12.631Z,18.03
2018-07-09T06:19:12.660Z,18.09
2018-07-09T06:20:12.545Z,18.03
2018-07-09T06:21:12.494Z,18.23
2018-07-09T06:22:12.488Z,18.41
2018-07-09T06:23:12.403Z,18.49
2018-07-09T06:24:12.357Z,18.56
2018-07-09T06:25:12.312Z,18.62
2018-07-09T06:26:12.268Z,18.67
2018-07-09T06:27:12.220Z,18.78
2018-07-09T06:28:12.201Z,18.77
2018-07-09T06:29:12.131Z,18.70
2018-07-09T06:30:12.080Z,18.74
2018-07-09T06:31:12.034Z,18.68
2018-07-09T06:32:11.995Z,18.78
2018-07-09T06:33:11.965Z,18.81
2018-07-09T06:34:11.897Z,18.83
2018-07-09T06:35:11.857Z,18.90
2018-07-09T06:36:11.807Z,18.92
2018-07-09T06:37:11.765Z,18.95
2018-07-09T06:38:11.746Z,19.00
2018-07-09T06:39:11.672Z,18.99
2018-07-09T06:40:11.628Z,19.19
2018-07-09T06:41:11.713Z,19.22
2018-07-09T06:42:11.537Z,19.46
2018-07-09T06:43:11.510Z,19.51
2018-07-09T06:44:11.447Z,19.60
2018-07-09T06:45:11.402Z,19.76
2018-07-09T06:46:11.349Z,19.79
2018-07-09T06:47:11.309Z,19.81
2018-07-09T06:48:11.303Z,19.62
2018-07-09T06:49:11.212Z,19.63
2018-07-09T06:50:11.215Z,19.79
2018-07-09T06:51:11.130Z,19.92
2018-07-09T06:52:11.075Z,19.99
2018-07-09T06:53:11.068Z,20.03
2018-07-09T06:54:10.989Z,20.22
2018-07-09T06:55:10.938Z,20.26
2018-07-09T06:56:10.896Z,20.47
2018-07-09T06:57:10.849Z,20.57
2018-07-09T06:58:10.825Z,20.56
2018-07-09T06:59:10.772Z,20.56
2018-07-09T07:00:10.722Z,20.67
2018-07-09T07:01:10.672Z,20.65
2018-07-09T07:02:10.623Z,20.80
2018-07-09T07:03:10.601Z,20.92
2018-07-09T07:04:10.539Z,20.90
2018-07-09T07:05:10.489Z,20.78
2018-07-09T07:06:10.445Z,20.65
2018-07-09T07:07:10.407Z,20.25
2018-07-09T07:08:10.383Z,20.18
2018-07-09T07:09:10.423Z,20.03
2018-07-09T07:10:10.266Z,19.96
2018-07-09T07:11:10.222Z,19.92
2018-07-09T07:12:10.178Z,19.88
2018-07-09T07:13:10.168Z,19.69
2018-07-09T07:14:10.084Z,19.63
2018-07-09T07:15:10.041Z,19.55
2018-07-09T07:16:09.995Z,19.63
2018-07-09T07:17:09.954Z,19.60
2018-07-09T07:18:09.928Z,19.64
2018-07-09T07:19:09.863Z,19.63
2018-07-09T07:20:10.478Z,19.66
2018-07-09T07:21:09.771Z,19.74
2018-07-09T07:22:09.726Z,19.81
2018-07-09T07:23:09.705Z,19.84
2018-07-09T07:24:09.642Z,20.01
2018-07-09T07:25:09.588Z,20.09
2018-07-09T07:26:09.541Z,20.01
2018-07-09T07:27:09.500Z,20.10
2018-07-09T07:28:09.490Z,20.14
2018-07-09T07:29:09.411Z,20.17
2018-07-09T07:30:09.372Z,20.15
2018-07-09T07:31:09.323Z,20.01
2018-07-09T07:32:09.270Z,20.18
2018-07-09T07:33:09.277Z,20.00
2018-07-09T07:34:09.186Z,20.01
2018-07-09T07:35:09.143Z,20.17
2018-07-09T07:36:09.095Z,20.25
2018-07-09T07:37:09.051Z,20.31
2018-07-09T07:38:09.031Z,20.34
2018-07-09T07:39:08.957Z,20.24
2018-07-09T07:40:08.915Z,20.33
2018-07-09T07:41:08.869Z,20.28
2018-07-09T07:42:08.826Z,20.36
2018-07-09T07:43:08.801Z,20.43
2018-07-09T07:44:08.731Z,20.53
2018-07-09T07:45:08.689Z,20.63
2018-07-09T07:46:08.647Z,20.66
2018-07-09T07:47:08.607Z,20.63
2018-07-09T07:48:08.590Z,20.53
2018-07-09T07:49:08.508Z,20.56
2018-07-09T07:50:08.516Z,20.50
2018-07-09T07:51:08.421Z,20.43
2018-07-09T07:52:08.370Z,20.43
2018-07-09T07:53:08.361Z,20.44
2018-07-09T07:54:08.291Z,20.36
2018-07-09T07:55:08.241Z,20.37
2018-07-09T07:56:08.193Z,20.34
2018-07-09T07:57:08.150Z,20.25
2018-07-09T07:58:08.109Z,20.31
2018-07-09T07:59:08.086Z,20.44
2018-07-09T08:00:08.018Z,20.47
2018-07-09T08:01:07.971Z,20.44
2018-07-09T08:02:07.927Z,20.56
2018-07-09T08:03:07.885Z,20.63
2018-07-09T08:04:07.861Z,20.56
2018-07-09T08:05:07.794Z,20.60
2018-07-09T08:06:07.751Z,20.57
2018-07-09T08:07:07.704Z,20.60
2018-07-09T08:08:07.662Z,20.50
2018-07-09T08:09:07.640Z,20.44
2018-07-09T08:10:07.575Z,20.26
2018-07-09T08:11:11.073Z,20.29
2018-07-09T08:13:00.557Z,20.26
2018-07-09T08:13:27.979Z,20.29
2018-07-09T08:14:07.412Z,20.47
2018-07-09T08:15:07.363Z,20.50
2018-07-09T08:16:07.300Z,20.66
2018-07-09T08:17:07.257Z,20.85
2018-07-09T08:18:07.214Z,21.06
2018-07-09T08:19:07.198Z,21.21
2018-07-09T08:20:07.128Z,21.45
2018-07-09T08:21:07.086Z,21.52
2018-07-09T08:22:07.040Z,21.65
2018-07-09T08:23:06.993Z,21.63
2018-07-09T08:24:06.974Z,21.69
2018-07-09T08:25:07.013Z,21.67
2018-07-09T08:26:06.858Z,21.65
2018-07-09T08:27:06.823Z,21.66
2018-07-09T08:28:06.780Z,21.65
2018-07-09T08:29:06.762Z,21.57
2018-07-09T08:30:06.681Z,21.39
2018-07-09T08:31:06.706Z,21.32
2018-07-09T08:32:06.601Z,21.36
2018-07-09T08:33:06.550Z,21.33
2018-07-09T08:34:06.534Z,21.29
2018-07-09T08:35:06.460Z,21.24
2018-07-09T08:36:06.431Z,21.10
2018-07-09T08:37:06.375Z,21.11
2018-07-09T08:38:06.334Z,21.15
2018-07-09T08:39:06.306Z,21.10
2018-07-09T08:40:06.243Z,21.11
2018-07-09T08:41:06.198Z,21.06
2018-07-09T08:42:06.149Z,21.18
2018-07-09T08:43:06.109Z,21.20
2018-07-09T08:44:06.097Z,21.35
2018-07-09T08:45:06.020Z,21.32
2018-07-09T08:46:05.977Z,21.39
2018-07-09T08:47:05.929Z,21.35
2018-07-09T08:48:05.891Z,21.37
2018-07-09T08:49:05.869Z,21.27
2018-07-09T08:50:05.801Z,21.32
2018-07-09T08:51:05.752Z,21.35
2018-07-09T08:52:05.711Z,21.20
2018-07-09T08:53:05.685Z,21.32
2018-07-09T08:54:05.656Z,21.37
2018-07-09T08:55:05.594Z,21.47
2018-07-09T08:56:05.535Z,21.40
2018-07-09T08:57:05.495Z,21.35
2018-07-09T08:58:05.453Z,21.48
2018-07-09T08:59:05.429Z,21.51
2018-07-09T09:00:05.357Z,21.65
2018-07-09T09:01:05.312Z,21.65
2018-07-09T09:02:05.276Z,21.72
2018-07-09T09:03:05.231Z,21.89
2018-07-09T09:04:05.208Z,21.93
2018-07-09T09:05:05.141Z,22.07
2018-07-09T09:06:05.091Z,22.13
2018-07-09T09:07:05.066Z,22.19
2018-07-09T09:08:05.002Z,22.26
2018-07-09T09:09:04.988Z,22.25
2018-07-09T09:10:04.992Z,22.25
2018-07-09T09:11:04.878Z,22.08
2018-07-09T09:12:04.828Z,22.03
2018-07-09T09:13:04.787Z,21.90
2018-07-09T09:14:04.766Z,21.76
2018-07-09T09:15:04.699Z,21.76
2018-07-09T09:16:04.661Z,21.70
2018-07-09T09:17:04.611Z,21.65
2018-07-09T09:18:04.569Z,21.55
2018-07-09T09:19:04.548Z,21.73
2018-07-09T09:20:04.483Z,21.82
2018-07-09T09:21:04.438Z,21.88
2018-07-09T09:22:04.395Z,21.77
2018-07-09T09:23:04.346Z,21.69
2018-07-09T09:24:04.330Z,21.59
2018-07-09T09:25:04.262Z,21.45
2018-07-09T09:26:04.222Z,21.42
2018-07-09T09:27:04.172Z,21.51
2018-07-09T09:28:04.127Z,21.43
2018-07-09T09:29:04.087Z,21.33
2018-07-09T09:30:04.064Z,21.35
2018-07-09T09:31:04.052Z,21.27
2018-07-09T09:32:03.953Z,21.12
2018-07-09T09:33:03.912Z,21.14
2018-07-09T09:34:03.865Z,21.06
2018-07-09T09:35:03.849Z,21.08
2018-07-09T09:36:03.780Z,21.08
2018-07-09T09:37:03.741Z,21.14
2018-07-09T09:38:03.689Z,21.22
2018-07-09T09:39:03.644Z,21.18
2018-07-09T09:40:03.631Z,21.21
2018-07-09T09:41:03.556Z,21.36
2018-07-09T09:42:03.514Z,21.30
2018-07-09T09:43:03.530Z,21.22
2018-07-09T09:44:03.427Z,21.15
2018-07-09T09:45:03.404Z,21.05
2018-07-09T09:46:03.340Z,21.00
2018-07-09T09:47:03.309Z,20.96
2018-07-09T09:48:03.259Z,20.99
2018-07-09T09:49:03.212Z,20.95
2018-07-09T09:50:03.180Z,20.93
2018-07-09T09:51:03.125Z,20.95
2018-07-09T09:52:03.072Z,20.92
2018-07-09T09:53:03.027Z,20.90
2018-07-09T09:54:02.988Z,20.75
2018-07-09T09:55:03.025Z,20.80
2018-07-09T09:56:02.894Z,20.66
2018-07-09T09:57:02.848Z,20.72
2018-07-09T09:58:02.804Z,20.82
2018-07-09T09:59:02.760Z,20.80
2018-07-09T10:00:02.736Z,20.82
2018-07-09T10:01:02.667Z,20.80
2018-07-09T10:02:02.625Z,20.87
2018-07-09T10:03:02.583Z,20.93
2018-07-09T10:04:02.536Z,20.99
2018-07-09T10:05:02.533Z,20.97
2018-07-09T10:06:02.445Z,21.08
2018-07-09T10:07:02.401Z,21.15
2018-07-09T10:08:02.359Z,21.15
2018-07-09T10:09:02.316Z,21.06
2018-07-09T10:10:02.293Z,21.02
2018-07-09T10:11:02.222Z,20.99
2018-07-09T10:12:02.187Z,20.92
2018-07-09T10:13:02.133Z,20.81
2018-07-09T10:14:02.104Z,20.80
2018-07-09T10:15:02.081Z,20.62
2018-07-09T10:16:01.996Z,20.69
2018-07-09T10:17:01.954Z,20.67
2018-07-09T10:18:01.907Z,20.62
2018-07-09T10:19:01.878Z,20.62
2018-07-09T10:20:01.848Z,20.66
2018-07-09T10:21:01.776Z,20.74
2018-07-09T10:22:01.728Z,20.65
2018-07-09T10:23:01.728Z,20.75
2018-07-09T10:24:01.652Z,20.75
2018-07-09T10:25:01.620Z,20.90
2018-07-09T10:26:01.553Z,21.02
2018-07-09T10:27:01.755Z,21.06
2018-07-09T10:28:01.458Z,21.06
2018-07-09T10:29:01.413Z,21.15
2018-07-09T10:30:01.395Z,21.12
2018-07-09T10:31:01.343Z,21.32
2018-07-09T10:32:01.277Z,21.35
2018-07-09T10:33:01.234Z,21.42
2018-07-09T10:34:01.188Z,21.33
2018-07-09T10:35:01.167Z,21.37
2018-07-09T10:36:01.100Z,21.35
2018-07-09T10:37:01.053Z,21.51
2018-07-09T10:38:01.010Z,21.45
2018-07-09T10:39:00.968Z,21.40
2018-07-09T10:40:00.949Z,21.42
2018-07-09T10:41:00.875Z,21.47
2018-07-09T10:42:00.834Z,21.32
2018-07-09T10:43:00.786Z,21.35
2018-07-09T10:44:00.744Z,21.30
2018-07-09T10:45:00.724Z,21.33
2018-07-09T10:46:00.655Z,21.33
2018-07-09T10:47:00.613Z,21.35
2018-07-09T10:48:00.567Z,21.35
2018-07-09T10:49:00.521Z,21.36
2018-07-09T10:50:00.498Z,21.20
2018-07-09T10:51:00.427Z,21.29
2018-07-09T10:52:00.389Z,21.26
2018-07-09T10:53:00.349Z,21.14
2018-07-09T10:54:00.299Z,21.14
2018-07-09T10:55:00.278Z,21.10
2018-07-09T10:56:00.209Z,21.08
2018-07-09T10:57:00.168Z,21.12
2018-07-09T10:58:00.118Z,21.08
2018-07-09T10:59:00.075Z,21.08
2018-07-09T11:00:00.049Z,21.10
2018-07-09T11:01:00.020Z,21.08
2018-07-09T11:01:59.943Z,21.00
2018-07-09T11:02:59.897Z,21.00
2018-07-09T11:03:59.853Z,21.00
2018-07-09T11:04:59.804Z,21.03
2018-07-09T11:05:59.787Z,20.99
2018-07-09T11:06:59.716Z,20.96
2018-07-09T11:07:59.670Z,20.90
2018-07-09T11:08:59.922Z,20.84
2018-07-09T11:09:59.579Z,20.77
2018-07-09T11:10:59.565Z,20.82
2018-07-09T11:11:59.492Z,20.75
2018-07-09T11:12:59.449Z,20.67
2018-07-09T11:13:59.398Z,20.66
2018-07-09T11:14:59.359Z,20.78
2018-07-09T11:15:59.334Z,20.82
2018-07-09T11:16:59.265Z,20.92
2018-07-09T11:17:59.234Z,20.97
2018-07-09T11:18:59.176Z,20.96
2018-07-09T11:19:59.255Z,21.00
2018-07-09T11:20:59.112Z,20.97
2018-07-09T11:21:59.041Z,20.92
2018-07-09T11:22:58.998Z,20.99
2018-07-09T11:23:58.952Z,20.97
2018-07-09T11:24:58.910Z,20.84
2018-07-09T11:25:58.886Z,20.81
2018-07-09T11:26:58.814Z,20.75
2018-07-09T11:27:58.770Z,20.74
2018-07-09T11:28:58.729Z,20.62
2018-07-09T11:29:58.681Z,20.67
2018-07-09T11:30:58.657Z,20.71
2018-07-09T11:31:58.593Z,20.67
2018-07-09T11:32:58.545Z,20.67
2018-07-09T11:33:58.501Z,20.67
2018-07-09T11:34:58.456Z,20.60
2018-07-09T11:35:58.465Z,20.66
2018-07-09T11:36:58.362Z,20.66
2018-07-09T11:37:58.318Z,20.72
2018-07-09T11:38:58.275Z,20.71
2018-07-09T11:39:58.230Z,20.72
2018-07-09T11:40:58.207Z,20.72
2018-07-09T11:41:58.139Z,20.67
2018-07-09T11:42:58.093Z,20.62
2018-07-09T11:43:58.051Z,20.62
2018-07-09T11:44:58.006Z,20.57
2018-07-09T11:45:57.976Z,20.56
2018-07-09T11:46:57.911Z,20.66
2018-07-09T11:47:57.865Z,20.62
2018-07-09T11:48:57.915Z,20.77
2018-07-09T11:49:57.935Z,20.78
2018-07-09T11:50:57.757Z,20.89
2018-07-09T11:51:57.688Z,20.96
2018-07-09T11:52:57.649Z,21.00
2018-07-09T11:53:57.600Z,21.17
2018-07-09T11:54:58.039Z,21.32
2018-07-09T11:55:57.542Z,21.39
2018-07-09T11:56:57.465Z,21.50
2018-07-09T11:57:57.414Z,21.57
2018-07-09T11:58:57.402Z,21.74
2018-07-09T11:59:57.330Z,21.82
2018-07-09T12:00:58.311Z,21.88
2018-07-09T12:01:57.539Z,21.88
2018-07-09T12:02:57.197Z,22.01
2018-07-09T12:03:57.164Z,21.92
2018-07-09T12:04:57.109Z,21.92
2018-07-09T12:05:57.083Z,21.79
2018-07-09T12:06:57.258Z,21.76
2018-07-09T12:07:56.968Z,21.81
2018-07-09T12:08:56.932Z,21.76
2018-07-09T12:09:56.948Z,21.88
2018-07-09T12:10:56.862Z,21.93
2018-07-09T12:11:56.791Z,21.90
2018-07-09T12:12:56.768Z,21.95
2018-07-09T12:13:56.709Z,21.96
2018-07-09T12:14:56.667Z,21.89
2018-07-09T12:15:56.639Z,21.98
2018-07-09T12:16:56.580Z,21.99
2018-07-09T12:17:56.572Z,21.93
2018-07-09T12:18:56.489Z,21.99
2018-07-09T12:19:56.515Z,21.82
2018-07-09T12:20:56.421Z,21.82
2018-07-09T12:21:56.353Z,21.72
2018-07-09T12:22:56.595Z,21.66
2018-07-09T12:23:56.265Z,21.58
2018-07-09T12:24:56.231Z,21.65
2018-07-09T12:25:56.212Z,21.65
2018-07-09T12:26:56.140Z,21.65
2018-07-09T12:27:56.089Z,21.70
2018-07-09T12:28:56.235Z,21.74
2018-07-09T12:29:55.998Z,21.84
2018-07-09T12:30:55.962Z,21.85
2018-07-09T12:31:56.060Z,22.05
2018-07-09T12:32:55.872Z,22.14
2018-07-09T12:33:55.819Z,22.22
2018-07-09T12:34:55.793Z,22.36
2018-07-09T12:35:55.742Z,22.44
2018-07-09T12:36:55.719Z,22.40
2018-07-09T12:37:55.654Z,22.40
2018-07-09T12:38:55.608Z,22.43
2018-07-09T12:39:55.609Z,22.35
2018-07-09T12:40:55.521Z,22.38
2018-07-09T12:41:55.490Z,22.23
2018-07-09T12:42:55.432Z,22.23
2018-07-09T12:43:55.482Z,22.29
2018-07-09T12:44:55.437Z,22.32
2018-07-09T12:45:55.322Z,22.41
2018-07-09T12:46:55.274Z,22.48
2018-07-09T12:47:55.212Z,22.48
2018-07-09T12:48:55.169Z,22.56
2018-07-09T12:49:55.123Z,22.56
2018-07-09T12:50:55.088Z,22.56
2018-07-09T12:51:55.062Z,22.62